sensor_id;sensor_type;location;lat;lon;timestamp;pressure;altitude;pressure_sealevel;temperature;humidity
19811;BME280;10065;49.632;8.346;2023-09-19T00:00:38;100058.44;;;19.12;90.81
19811;BME280;10065;49.632;8.346;2023-09-19T00:03:07;100057.56;;;19.25;89.44
19811;BME280;10065;49.632;8.346;2023-09-19T00:05:37;100054.28;;;19.23;89.73
19811;BME280;10065;49.632;8.346;2023-09-19T00:08:05;100065.88;;;19.16;89.95
19811;BME280;10065;49.632;8.346;2023-09-19T00:10:34;100063.63;;;19.13;90.20
19811;BME280;10065;49.632;8.346;2023-09-19T00:13:03;100064.66;;;19.12;90.68
19811;BME280;10065;49.632;8.346;2023-09-19T00:15:38;100068.38;;;19.11;90.51
19811;BME280;10065;49.632;8.346;2023-09-19T00:18:06;100066.31;;;19.13;91.09
19811;BME280;10065;49.632;8.346;2023-09-19T00:20:36;100075.41;;;19.12;91.83
19811;BME280;10065;49.632;8.346;2023-09-19T00:23:05;100069.00;;;19.13;90.74
19811;BME280;10065;49.632;8.346;2023-09-19T00:25:35;100074.56;;;19.12;90.99
19811;BME280;10065;49.632;8.346;2023-09-19T00:28:04;100068.56;;;19.16;90.31
19811;BME280;10065;49.632;8.346;2023-09-19T00:30:34;100072.50;;;19.14;90.24
19811;BME280;10065;49.632;8.346;2023-09-19T00:33:03;100076.25;;;19.06;91.29
19811;BME280;10065;49.632;8.346;2023-09-19T00:35:32;100070.28;;;19.04;91.26
19811;BME280;10065;49.632;8.346;2023-09-19T00:38:00;100076.25;;;19.06;90.84
19811;BME280;10065;49.632;8.346;2023-09-19T00:40:30;100078.31;;;19.04;91.22
19811;BME280;10065;49.632;8.346;2023-09-19T00:42:59;100081.03;;;19.04;91.32
19811;BME280;10065;49.632;8.346;2023-09-19T00:45:27;100078.34;;;18.98;91.82
19811;BME280;10065;49.632;8.346;2023-09-19T00:47:55;100087.25;;;18.98;91.88
19811;BME280;10065;49.632;8.346;2023-09-19T00:50:27;100081.03;;;18.98;92.42
19811;BME280;10065;49.632;8.346;2023-09-19T00:52:55;100080.22;;;18.97;91.94
19811;BME280;10065;49.632;8.346;2023-09-19T00:55:24;100089.94;;;18.98;92.24
19811;BME280;10065;49.632;8.346;2023-09-19T00:57:52;100090.13;;;19.03;91.62
19811;BME280;10065;49.632;8.346;2023-09-19T01:00:22;100091.94;;;19.09;91.07
19811;BME280;10065;49.632;8.346;2023-09-19T01:02:50;100094.41;;;19.11;90.98
19811;BME280;10065;49.632;8.346;2023-09-19T01:05:18;100089.47;;;19.14;91.11
19811;BME280;10065;49.632;8.346;2023-09-19T01:07:48;100089.25;;;19.16;90.93
19811;BME280;10065;49.632;8.346;2023-09-19T01:10:17;100096.66;;;19.21;90.63
19811;BME280;10065;49.632;8.346;2023-09-19T01:12:54;100094.78;;;19.21;90.16
19811;BME280;10065;49.632;8.346;2023-09-19T01:15:31;100099.31;;;19.27;89.95
19811;BME280;10065;49.632;8.346;2023-09-19T01:18:16;100098.22;;;19.41;88.88
19811;BME280;10065;49.632;8.346;2023-09-19T01:20:55;100102.16;;;19.52;87.91
19811;BME280;10065;49.632;8.346;2023-09-19T01:23:36;100102.34;;;19.44;88.20
19811;BME280;10065;49.632;8.346;2023-09-19T01:26:13;100101.75;;;19.42;88.30
19811;BME280;10065;49.632;8.346;2023-09-19T01:28:52;100102.16;;;19.39;88.39
19811;BME280;10065;49.632;8.346;2023-09-19T01:31:24;100105.28;;;19.36;88.92
19811;BME280;10065;49.632;8.346;2023-09-19T01:33:58;100119.56;;;19.30;89.87
19811;BME280;10065;49.632;8.346;2023-09-19T01:36:27;100121.81;;;19.39;89.06
19811;BME280;10065;49.632;8.346;2023-09-19T01:38:57;100116.84;;;19.43;88.38
19811;BME280;10065;49.632;8.346;2023-09-19T01:41:38;100126.97;;;19.41;88.81
19811;BME280;10065;49.632;8.346;2023-09-19T01:44:11;100126.56;;;19.50;88.25
19811;BME280;10065;49.632;8.346;2023-09-19T01:46:41;100126.09;;;19.53;87.72
19811;BME280;10065;49.632;8.346;2023-09-19T01:49:18;100131.28;;;19.55;86.95
19811;BME280;10065;49.632;8.346;2023-09-19T01:51:54;100133.34;;;19.53;86.88
19811;BME280;10065;49.632;8.346;2023-09-19T01:54:26;100133.91;;;19.62;86.66
19811;BME280;10065;49.632;8.346;2023-09-19T01:57:01;100137.19;;;19.70;85.79
19811;BME280;10065;49.632;8.346;2023-09-19T01:59:36;100139.28;;;19.68;86.74
19811;BME280;10065;49.632;8.346;2023-09-19T02:02:08;100133.91;;;19.68;87.52
19811;BME280;10065;49.632;8.346;2023-09-19T02:04:37;100141.16;;;19.68;86.78
19811;BME280;10065;49.632;8.346;2023-09-19T02:07:05;100138.00;;;19.77;86.18
19811;BME280;10065;49.632;8.346;2023-09-19T02:09:34;100147.56;;;19.67;86.71
19811;BME280;10065;49.632;8.346;2023-09-19T02:12:05;100145.88;;;19.72;86.18
19811;BME280;10065;49.632;8.346;2023-09-19T02:14:33;100158.91;;;19.75;86.22
19811;BME280;10065;49.632;8.346;2023-09-19T02:17:02;100161.41;;;19.70;86.56
19811;BME280;10065;49.632;8.346;2023-09-19T02:19:33;100164.31;;;19.69;86.37
19811;BME280;10065;49.632;8.346;2023-09-19T02:22:01;100167.22;;;19.67;86.89
19811;BME280;10065;49.632;8.346;2023-09-19T02:24:33;100169.97;;;19.61;87.34
19811;BME280;10065;49.632;8.346;2023-09-19T02:27:01;100179.66;;;19.62;87.18
19811;BME280;10065;49.632;8.346;2023-09-19T02:29:32;100185.69;;;19.57;87.69
19811;BME280;10065;49.632;8.346;2023-09-19T02:32:01;100183.41;;;19.54;87.64
19811;BME280;10065;49.632;8.346;2023-09-19T02:34:31;100183.00;;;19.44;88.23
19811;BME280;10065;49.632;8.346;2023-09-19T02:37:00;100180.13;;;19.39;88.58
19811;BME280;10065;49.632;8.346;2023-09-19T02:39:28;100190.28;;;19.30;89.48
19811;BME280;10065;49.632;8.346;2023-09-19T02:41:56;100184.09;;;19.30;88.90
19811;BME280;10065;49.632;8.346;2023-09-19T02:44:24;100188.66;;;19.23;89.58
19811;BME280;10065;49.632;8.346;2023-09-19T02:46:52;100191.97;;;19.25;89.09
19811;BME280;10065;49.632;8.346;2023-09-19T02:49:20;100192.19;;;19.23;89.25
19811;BME280;10065;49.632;8.346;2023-09-19T02:51:48;100195.06;;;19.22;89.54
19811;BME280;10065;49.632;8.346;2023-09-19T02:54:17;100200.44;;;19.22;88.93
19811;BME280;10065;49.632;8.346;2023-09-19T02:56:45;100204.78;;;19.23;88.86
19811;BME280;10065;49.632;8.346;2023-09-19T02:59:13;100199.66;;;19.14;89.21
19811;BME280;10065;49.632;8.346;2023-09-19T03:01:43;100195.72;;;19.10;89.94
19811;BME280;10065;49.632;8.346;2023-09-19T03:04:14;100190.56;;;19.15;88.89
19811;BME280;10065;49.632;8.346;2023-09-19T03:06:46;100193.66;;;19.06;89.07
19811;BME280;10065;49.632;8.346;2023-09-19T03:09:19;100206.47;;;19.04;89.36
19811;BME280;10065;49.632;8.346;2023-09-19T03:11:46;100208.97;;;19.05;88.65
19811;BME280;10065;49.632;8.346;2023-09-19T03:14:14;100208.97;;;19.05;88.98
19811;BME280;10065;49.632;8.346;2023-09-19T03:16:42;100215.38;;;19.04;88.51
19811;BME280;10065;49.632;8.346;2023-09-19T03:19:11;100215.38;;;19.04;88.41
19811;BME280;10065;49.632;8.346;2023-09-19T03:21:41;100218.91;;;18.98;88.57
19811;BME280;10065;49.632;8.346;2023-09-19T03:24:09;100226.72;;;19.00;88.86
19811;BME280;10065;49.632;8.346;2023-09-19T03:26:39;100230.69;;;18.97;88.35
19811;BME280;10065;49.632;8.346;2023-09-19T03:29:07;100223.66;;;18.96;88.43
19811;BME280;10065;49.632;8.346;2023-09-19T03:31:36;100238.53;;;18.99;88.14
19811;BME280;10065;49.632;8.346;2023-09-19T03:34:04;100232.94;;;18.94;88.14
19811;BME280;10065;49.632;8.346;2023-09-19T03:36:35;100230.28;;;18.87;88.63
19811;BME280;10065;49.632;8.346;2023-09-19T03:39:03;100233.78;;;18.94;87.93
19811;BME280;10065;49.632;8.346;2023-09-19T03:41:32;100232.13;;;18.87;87.82
19811;BME280;10065;49.632;8.346;2023-09-19T03:44:04;100237.50;;;18.93;87.31
19811;BME280;10065;49.632;8.346;2023-09-19T03:46:32;100235.03;;;18.98;85.89
19811;BME280;10065;49.632;8.346;2023-09-19T03:49:02;100229.22;;;19.14;84.32
19811;BME280;10065;49.632;8.346;2023-09-19T03:51:30;100236.03;;;19.17;83.98
19811;BME280;10065;49.632;8.346;2023-09-19T03:53:57;100236.22;;;19.22;82.95
19811;BME280;10065;49.632;8.346;2023-09-19T03:56:25;100232.91;;;19.20;83.15
19811;BME280;10065;49.632;8.346;2023-09-19T03:58:53;100239.91;;;19.28;82.44
19811;BME280;10065;49.632;8.346;2023-09-19T04:01:22;100241.16;;;19.32;80.08
19811;BME280;10065;49.632;8.346;2023-09-19T04:03:50;100245.50;;;19.26;80.91
19811;BME280;10065;49.632;8.346;2023-09-19T04:06:20;100239.75;;;19.23;80.44
19811;BME280;10065;49.632;8.346;2023-09-19T04:08:48;100240.78;;;19.22;80.48
19811;BME280;10065;49.632;8.346;2023-09-19T04:11:16;100242.00;;;19.19;80.47
19811;BME280;10065;49.632;8.346;2023-09-19T04:13:43;100242.03;;;19.26;80.18
19811;BME280;10065;49.632;8.346;2023-09-19T04:16:11;100245.75;;;19.25;80.09
19811;BME280;10065;49.632;8.346;2023-09-19T04:18:41;100242.59;;;19.28;79.99
19811;BME280;10065;49.632;8.346;2023-09-19T04:21:09;100244.72;;;19.26;78.98
19811;BME280;10065;49.632;8.346;2023-09-19T04:23:37;100250.28;;;19.17;78.87
19811;BME280;10065;49.632;8.346;2023-09-19T04:26:05;100259.63;;;19.08;79.61
19811;BME280;10065;49.632;8.346;2023-09-19T04:28:32;100257.13;;;19.07;78.59
19811;BME280;10065;49.632;8.346;2023-09-19T04:31:00;100268.50;;;19.02;78.91
19811;BME280;10065;49.632;8.346;2023-09-19T04:33:28;100258.34;;;19.11;79.00
19811;BME280;10065;49.632;8.346;2023-09-19T04:35:58;100259.00;;;19.06;78.19
19811;BME280;10065;49.632;8.346;2023-09-19T04:38:40;100269.34;;;18.96;79.52
19811;BME280;10065;49.632;8.346;2023-09-19T04:41:11;100265.81;;;18.89;79.02
19811;BME280;10065;49.632;8.346;2023-09-19T04:43:39;100275.53;;;18.77;79.53
19811;BME280;10065;49.632;8.346;2023-09-19T04:46:08;100273.44;;;18.66;79.54
19811;BME280;10065;49.632;8.346;2023-09-19T04:48:36;100277.38;;;18.63;80.54
19811;BME280;10065;49.632;8.346;2023-09-19T04:51:05;100276.75;;;18.61;80.79
19811;BME280;10065;49.632;8.346;2023-09-19T04:53:33;100281.50;;;18.59;80.75
19811;BME280;10065;49.632;8.346;2023-09-19T04:56:01;100294.09;;;18.65;81.07
19811;BME280;10065;49.632;8.346;2023-09-19T04:58:30;100291.66;;;18.64;80.49
19811;BME280;10065;49.632;8.346;2023-09-19T05:00:58;100302.78;;;18.61;80.53
19811;BME280;10065;49.632;8.346;2023-09-19T05:03:26;100306.69;;;18.58;80.25
19811;BME280;10065;49.632;8.346;2023-09-19T05:05:54;100311.88;;;18.60;80.68
19811;BME280;10065;49.632;8.346;2023-09-19T05:08:23;100307.13;;;18.62;79.33
19811;BME280;10065;49.632;8.346;2023-09-19T05:10:51;100304.44;;;18.62;79.30
19811;BME280;10065;49.632;8.346;2023-09-19T05:13:21;100301.75;;;18.62;78.67
19811;BME280;10065;49.632;8.346;2023-09-19T05:15:49;100307.53;;;18.59;78.35
19811;BME280;10065;49.632;8.346;2023-09-19T05:18:17;100311.41;;;18.50;80.14
19811;BME280;10065;49.632;8.346;2023-09-19T05:20:45;100320.94;;;18.59;79.86
19811;BME280;10065;49.632;8.346;2023-09-19T05:23:12;100326.75;;;18.62;77.97
19811;BME280;10065;49.632;8.346;2023-09-19T05:25:41;100323.88;;;18.64;78.98
19811;BME280;10065;49.632;8.346;2023-09-19T05:28:10;100326.75;;;18.69;78.01
19811;BME280;10065;49.632;8.346;2023-09-19T05:30:41;100322.00;;;18.71;78.22
19811;BME280;10065;49.632;8.346;2023-09-19T05:33:12;100328.81;;;18.73;77.58
19811;BME280;10065;49.632;8.346;2023-09-19T05:35:40;100326.34;;;18.72;77.12
19811;BME280;10065;49.632;8.346;2023-09-19T05:38:08;100324.69;;;18.64;77.50
19811;BME280;10065;49.632;8.346;2023-09-19T05:40:38;100318.50;;;18.64;77.20
19811;BME280;10065;49.632;8.346;2023-09-19T05:43:10;100319.69;;;18.55;78.07
19811;BME280;10065;49.632;8.346;2023-09-19T05:45:37;100320.28;;;18.50;78.89
19811;BME280;10065;49.632;8.346;2023-09-19T05:48:08;100323.78;;;18.51;78.57
19811;BME280;10065;49.632;8.346;2023-09-19T05:50:36;100326.28;;;18.46;79.05
19811;BME280;10065;49.632;8.346;2023-09-19T05:53:03;100327.50;;;18.50;77.92
19811;BME280;10065;49.632;8.346;2023-09-19T05:55:31;100331.06;;;18.57;78.63
19811;BME280;10065;49.632;8.346;2023-09-19T05:57:59;100340.38;;;18.74;77.89
19811;BME280;10065;49.632;8.346;2023-09-19T06:00:28;100341.25;;;18.88;77.22
19811;BME280;10065;49.632;8.346;2023-09-19T06:02:56;100343.94;;;18.94;75.90
19811;BME280;10065;49.632;8.346;2023-09-19T06:05:25;100349.09;;;19.02;75.89
19811;BME280;10065;49.632;8.346;2023-09-19T06:07:54;100354.47;;;19.09;75.48
19811;BME280;10065;49.632;8.346;2023-09-19T06:10:22;100359.44;;;19.18;74.88
19811;BME280;10065;49.632;8.346;2023-09-19T06:12:50;100360.50;;;19.24;74.71
19811;BME280;10065;49.632;8.346;2023-09-19T06:15:17;100358.63;;;19.25;73.99
19811;BME280;10065;49.632;8.346;2023-09-19T06:17:50;100362.56;;;19.29;73.62
19811;BME280;10065;49.632;8.346;2023-09-19T06:20:18;100363.19;;;19.31;73.71
19811;BME280;10065;49.632;8.346;2023-09-19T06:22:46;100358.22;;;19.41;72.93
19811;BME280;10065;49.632;8.346;2023-09-19T06:25:16;100368.56;;;19.31;73.35
19811;BME280;10065;49.632;8.346;2023-09-19T06:27:46;100365.69;;;19.26;73.47
19811;BME280;10065;49.632;8.346;2023-09-19T06:30:14;100362.75;;;19.27;72.79
19811;BME280;10065;49.632;8.346;2023-09-19T06:32:41;100365.25;;;19.29;73.16
19811;BME280;10065;49.632;8.346;2023-09-19T06:35:12;100362.56;;;19.29;72.62
19811;BME280;10065;49.632;8.346;2023-09-19T06:37:42;100371.88;;;19.33;72.20
19811;BME280;10065;49.632;8.346;2023-09-19T06:40:11;100372.50;;;19.41;70.69
19811;BME280;10065;49.632;8.346;2023-09-19T06:42:41;100371.66;;;19.28;71.90
19811;BME280;10065;49.632;8.346;2023-09-19T06:45:09;100382.59;;;19.26;71.44
19811;BME280;10065;49.632;8.346;2023-09-19T06:47:39;100384.25;;;19.27;70.65
19811;BME280;10065;49.632;8.346;2023-09-19T06:50:08;100390.47;;;19.28;69.58
19811;BME280;10065;49.632;8.346;2023-09-19T06:52:41;100400.19;;;19.29;70.21
19811;BME280;10065;49.632;8.346;2023-09-19T06:55:09;100404.53;;;19.36;69.51
19811;BME280;10065;49.632;8.346;2023-09-19T06:57:39;100408.88;;;19.31;69.37
19811;BME280;10065;49.632;8.346;2023-09-19T07:00:11;100409.50;;;19.33;69.33
19811;BME280;10065;49.632;8.346;2023-09-19T07:02:44;100410.75;;;19.30;68.27
19811;BME280;10065;49.632;8.346;2023-09-19T07:05:12;100422.31;;;19.31;68.16
19811;BME280;10065;49.632;8.346;2023-09-19T07:07:41;100416.31;;;19.29;68.68
19811;BME280;10065;49.632;8.346;2023-09-19T07:10:10;100412.81;;;19.35;68.73
19811;BME280;10065;49.632;8.346;2023-09-19T07:12:39;100417.13;;;19.36;67.55
19811;BME280;10065;49.632;8.346;2023-09-19T07:15:09;100422.50;;;19.36;68.19
19811;BME280;10065;49.632;8.346;2023-09-19T07:17:36;100420.06;;;19.34;68.88
19811;BME280;10065;49.632;8.346;2023-09-19T07:20:05;100422.31;;;19.37;68.33
19811;BME280;10065;49.632;8.346;2023-09-19T07:22:34;100429.34;;;19.45;67.96
19811;BME280;10065;49.632;8.346;2023-09-19T07:25:04;100436.22;;;19.54;67.98
19811;BME280;10065;49.632;8.346;2023-09-19T07:27:32;100445.53;;;19.58;68.05
19811;BME280;10065;49.632;8.346;2023-09-19T07:30:00;100452.13;;;19.62;67.99
19811;BME280;10065;49.632;8.346;2023-09-19T07:32:28;100444.06;;;19.62;67.13
19811;BME280;10065;49.632;8.346;2023-09-19T07:34:55;100456.28;;;19.65;67.46
19811;BME280;10065;49.632;8.346;2023-09-19T07:37:23;100453.56;;;19.71;65.48
19811;BME280;10065;49.632;8.346;2023-09-19T07:39:52;100455.69;;;19.69;65.36
19811;BME280;10065;49.632;8.346;2023-09-19T07:42:21;100463.72;;;19.76;65.02
19811;BME280;10065;49.632;8.346;2023-09-19T07:44:49;100457.50;;;19.82;65.09
19811;BME280;10065;49.632;8.346;2023-09-19T07:47:17;100466.19;;;19.90;63.93
19811;BME280;10065;49.632;8.346;2023-09-19T07:49:46;100477.78;;;19.98;62.86
19811;BME280;10065;49.632;8.346;2023-09-19T07:52:14;100471.56;;;19.97;63.13
19811;BME280;10065;49.632;8.346;2023-09-19T07:54:42;100474.25;;;20.04;62.28
19811;BME280;10065;49.632;8.346;2023-09-19T07:57:10;100475.72;;;20.00;62.22
19811;BME280;10065;49.632;8.346;2023-09-19T07:59:39;100481.91;;;20.00;61.75
19811;BME280;10065;49.632;8.346;2023-09-19T08:02:08;100487.28;;;20.07;61.79
19811;BME280;10065;49.632;8.346;2023-09-19T08:04:42;100485.84;;;20.11;60.91
19811;BME280;10065;49.632;8.346;2023-09-19T08:07:13;100489.34;;;20.18;60.35
19811;BME280;10065;49.632;8.346;2023-09-19T08:09:41;100492.22;;;20.23;60.01
19811;BME280;10065;49.632;8.346;2023-09-19T08:12:15;100495.97;;;20.28;59.82
19811;BME280;10065;49.632;8.346;2023-09-19T08:14:44;100493.28;;;20.35;59.51
19811;BME280;10065;49.632;8.346;2023-09-19T08:17:13;100493.47;;;20.40;59.16
19811;BME280;10065;49.632;8.346;2023-09-19T08:19:41;100499.44;;;20.55;57.17
19811;BME280;10065;49.632;8.346;2023-09-19T08:22:11;100501.91;;;21.08;55.61
19811;BME280;10065;49.632;8.346;2023-09-19T08:24:39;100503.78;;;21.95;52.23
19811;BME280;10065;49.632;8.346;2023-09-19T08:27:09;100504.94;;;22.67;50.02
19811;BME280;10065;49.632;8.346;2023-09-19T08:29:38;100491.13;;;23.77;47.27
19811;BME280;10065;49.632;8.346;2023-09-19T08:32:08;100502.84;;;24.75;45.41
19811;BME280;10065;49.632;8.346;2023-09-19T08:34:36;100505.75;;;25.71;43.32
19811;BME280;10065;49.632;8.346;2023-09-19T08:37:05;100493.72;;;26.55;41.66
19811;BME280;10065;49.632;8.346;2023-09-19T08:39:33;100505.72;;;27.03;40.55
19811;BME280;10065;49.632;8.346;2023-09-19T08:42:03;100495.75;;;27.67;39.51
19811;BME280;10065;49.632;8.346;2023-09-19T08:44:36;100501.41;;;28.35;37.27
19811;BME280;10065;49.632;8.346;2023-09-19T08:47:10;100507.97;;;28.91;36.53
19811;BME280;10065;49.632;8.346;2023-09-19T08:49:44;100496.91;;;29.43;35.31
19811;BME280;10065;49.632;8.346;2023-09-19T08:52:20;100500.75;;;29.63;34.38
19811;BME280;10065;49.632;8.346;2023-09-19T08:54:52;100497.72;;;30.10;34.28
19811;BME280;10065;49.632;8.346;2023-09-19T08:57:21;100505.03;;;30.35;33.26
19811;BME280;10065;49.632;8.346;2023-09-19T08:59:49;100501.16;;;30.61;32.85
19811;BME280;10065;49.632;8.346;2023-09-19T09:02:18;100509.94;;;30.58;32.28
19811;BME280;10065;49.632;8.346;2023-09-19T09:04:48;100511.31;;;30.60;32.42
19811;BME280;10065;49.632;8.346;2023-09-19T09:07:17;100503.47;;;30.13;32.78
19811;BME280;10065;49.632;8.346;2023-09-19T09:09:47;100504.56;;;29.51;33.25
19811;BME280;10065;49.632;8.346;2023-09-19T09:12:15;100513.50;;;28.49;34.51
19811;BME280;10065;49.632;8.346;2023-09-19T09:14:44;100512.72;;;27.48;36.09
19811;BME280;10065;49.632;8.346;2023-09-19T09:17:12;100514.00;;;26.48;38.09
19811;BME280;10065;49.632;8.346;2023-09-19T09:19:42;100520.63;;;25.68;39.63
19811;BME280;10065;49.632;8.346;2023-09-19T09:22:10;100519.19;;;25.04;41.20
19811;BME280;10065;49.632;8.346;2023-09-19T09:24:51;100522.81;;;24.58;42.14
19811;BME280;10065;49.632;8.346;2023-09-19T09:27:20;100524.13;;;24.32;41.95
19811;BME280;10065;49.632;8.346;2023-09-19T09:29:52;100524.09;;;24.20;42.25
19811;BME280;10065;49.632;8.346;2023-09-19T09:32:23;100521.41;;;23.97;42.82
19811;BME280;10065;49.632;8.346;2023-09-19T09:34:53;100519.16;;;23.94;43.66
19811;BME280;10065;49.632;8.346;2023-09-19T09:37:26;100517.50;;;23.93;43.45
19811;BME280;10065;49.632;8.346;2023-09-19T09:39:57;100519.16;;;23.94;43.48
19811;BME280;10065;49.632;8.346;2023-09-19T09:42:44;100523.75;;;24.05;43.07
19811;BME280;10065;49.632;8.346;2023-09-19T09:45:15;100526.56;;;23.87;43.13
19811;BME280;10065;49.632;8.346;2023-09-19T09:47:45;100517.09;;;23.54;44.06
19811;BME280;10065;49.632;8.346;2023-09-19T09:50:29;100515.16;;;23.43;44.00
19811;BME280;10065;49.632;8.346;2023-09-19T09:53:19;100505.63;;;24.06;43.22
19811;BME280;10065;49.632;8.346;2023-09-19T09:55:58;100501.94;;;23.77;44.43
19811;BME280;10065;49.632;8.346;2023-09-19T09:58:27;100511.28;;;23.39;44.64
19811;BME280;10065;49.632;8.346;2023-09-19T10:00:57;100505.66;;;23.11;45.72
19811;BME280;10065;49.632;8.346;2023-09-19T10:03:32;100500.38;;;22.86;45.92
19811;BME280;10065;49.632;8.346;2023-09-19T10:06:08;100503.59;;;22.76;46.29
19811;BME280;10065;49.632;8.346;2023-09-19T10:08:58;100489.03;;;22.77;46.55
19811;BME280;10065;49.632;8.346;2023-09-19T10:11:32;100488.19;;;22.95;46.26
19811;BME280;10065;49.632;8.346;2023-09-19T10:14:04;100489.22;;;23.24;45.25
19811;BME280;10065;49.632;8.346;2023-09-19T10:16:34;100477.34;;;23.25;45.64
19811;BME280;10065;49.632;8.346;2023-09-19T10:19:07;100481.75;;;23.08;45.40
19811;BME280;10065;49.632;8.346;2023-09-19T10:21:37;100483.75;;;22.82;46.28
19811;BME280;10065;49.632;8.346;2023-09-19T10:24:07;100478.47;;;22.69;45.17
19811;BME280;10065;49.632;8.346;2023-09-19T10:26:36;100494.34;;;22.66;45.96
19811;BME280;10065;49.632;8.346;2023-09-19T10:29:06;100489.03;;;22.59;46.31
19811;BME280;10065;49.632;8.346;2023-09-19T10:31:36;100495.31;;;22.53;46.51
19811;BME280;10065;49.632;8.346;2023-09-19T10:34:08;100485.31;;;22.53;47.33
19811;BME280;10065;49.632;8.346;2023-09-19T10:36:39;100487.91;;;22.48;46.44
19811;BME280;10065;49.632;8.346;2023-09-19T10:39:08;100479.56;;;22.50;46.51
19811;BME280;10065;49.632;8.346;2023-09-19T10:41:39;100490.94;;;22.70;45.98
19811;BME280;10065;49.632;8.346;2023-09-19T10:44:07;100482.69;;;23.13;45.51
19811;BME280;10065;49.632;8.346;2023-09-19T10:46:36;100496.88;;;23.27;45.38
19811;BME280;10065;49.632;8.346;2023-09-19T10:49:05;100492.03;;;23.17;46.65
19811;BME280;10065;49.632;8.346;2023-09-19T10:51:42;100490.38;;;23.16;44.61
19811;BME280;10065;49.632;8.346;2023-09-19T10:54:13;100489.75;;;23.03;45.21
19811;BME280;10065;49.632;8.346;2023-09-19T10:56:46;100487.06;;;23.14;45.24
19811;BME280;10065;49.632;8.346;2023-09-19T10:59:17;100486.22;;;25.40;42.09
19811;BME280;10065;49.632;8.346;2023-09-19T11:01:46;100479.09;;;28.38;36.32
19811;BME280;10065;49.632;8.346;2023-09-19T11:04:22;100481.25;;;28.36;34.37
19811;BME280;10065;49.632;8.346;2023-09-19T11:07:03;100472.56;;;27.06;35.94
19811;BME280;10065;49.632;8.346;2023-09-19T11:09:48;100464.06;;;26.54;38.62
19811;BME280;10065;49.632;8.346;2023-09-19T11:12:47;100461.72;;;26.63;37.99
19811;BME280;10065;49.632;8.346;2023-09-19T11:18:52;100460.84;;;25.35;38.96
19811;BME280;10065;49.632;8.346;2023-09-19T11:24:31;100454.66;;;25.68;38.64
19811;BME280;10065;49.632;8.346;2023-09-19T11:27:13;100446.56;;;25.39;39.38
19811;BME280;10065;49.632;8.346;2023-09-19T11:29:44;100450.59;;;24.92;39.51
19811;BME280;10065;49.632;8.346;2023-09-19T11:32:12;100447.41;;;24.83;40.37
19811;BME280;10065;49.632;8.346;2023-09-19T11:34:44;100449.22;;;24.78;40.70
19811;BME280;10065;49.632;8.346;2023-09-19T11:40:47;100445.09;;;24.23;39.43
19811;BME280;10065;49.632;8.346;2023-09-19T11:43:29;100435.75;;;24.19;41.44
19811;BME280;10065;49.632;8.346;2023-09-19T11:46:07;100444.03;;;24.24;41.62
19811;BME280;10065;49.632;8.346;2023-09-19T11:48:35;100442.94;;;24.49;40.14
19811;BME280;10065;49.632;8.346;2023-09-19T11:51:15;100430.41;;;24.88;41.00
19811;BME280;10065;49.632;8.346;2023-09-19T11:53:49;100428.03;;;25.20;40.07
19811;BME280;10065;49.632;8.346;2023-09-19T11:56:19;100427.38;;;25.29;39.72
19811;BME280;10065;49.632;8.346;2023-09-19T11:58:49;100426.06;;;25.15;40.29
19811;BME280;10065;49.632;8.346;2023-09-19T12:01:22;100425.94;;;24.93;40.12
19811;BME280;10065;49.632;8.346;2023-09-19T12:03:54;100413.53;;;24.69;40.77
19811;BME280;10065;49.632;8.346;2023-09-19T12:06:25;100420.47;;;24.65;41.64
19811;BME280;10065;49.632;8.346;2023-09-19T12:08:53;100421.97;;;24.72;41.32
19811;BME280;10065;49.632;8.346;2023-09-19T12:11:23;100414.13;;;25.16;39.61
19811;BME280;10065;49.632;8.346;2023-09-19T12:13:52;100406.91;;;25.55;38.96
19811;BME280;10065;49.632;8.346;2023-09-19T12:16:24;100415.13;;;25.94;37.83
19811;BME280;10065;49.632;8.346;2023-09-19T12:18:52;100406.41;;;25.58;39.37
19811;BME280;10065;49.632;8.346;2023-09-19T12:21:25;100404.69;;;25.19;39.61
19811;BME280;10065;49.632;8.346;2023-09-19T12:24:04;100413.72;;;24.79;40.65
19811;BME280;10065;49.632;8.346;2023-09-19T12:26:41;100408.66;;;24.43;42.03
19811;BME280;10065;49.632;8.346;2023-09-19T12:29:13;100405.63;;;24.16;40.99
19811;BME280;10065;49.632;8.346;2023-09-19T12:31:52;100393.88;;;23.87;41.58
19811;BME280;10065;49.632;8.346;2023-09-19T12:34:25;100401.22;;;23.75;42.30
19811;BME280;10065;49.632;8.346;2023-09-19T12:37:05;100401.22;;;23.75;40.77
19811;BME280;10065;49.632;8.346;2023-09-19T12:39:38;100397.09;;;23.72;40.73
19811;BME280;10065;49.632;8.346;2023-09-19T12:42:11;100396.25;;;23.72;40.97
19811;BME280;10065;49.632;8.346;2023-09-19T12:44:42;100396.03;;;23.61;42.36
19811;BME280;10065;49.632;8.346;2023-09-19T12:47:11;100399.16;;;23.47;43.18
19811;BME280;10065;49.632;8.346;2023-09-19T12:50:10;100386.22;;;23.37;43.27
19811;BME280;10065;49.632;8.346;2023-09-19T12:52:44;100386.06;;;23.32;42.31
19811;BME280;10065;49.632;8.346;2023-09-19T12:55:21;100389.59;;;23.21;42.07
19811;BME280;10065;49.632;8.346;2023-09-19T12:57:58;100381.00;;;23.24;43.81
19811;BME280;10065;49.632;8.346;2023-09-19T13:00:34;100378.78;;;23.21;43.54
19811;BME280;10065;49.632;8.346;2023-09-19T13:03:13;100374.53;;;23.25;42.89
19811;BME280;10065;49.632;8.346;2023-09-19T13:05:50;100379.00;;;23.31;43.18
19811;BME280;10065;49.632;8.346;2023-09-19T13:08:19;100375.97;;;23.27;43.00
19811;BME280;10065;49.632;8.346;2023-09-19T13:11:09;100367.97;;;23.21;43.97
19811;BME280;10065;49.632;8.346;2023-09-19T13:13:42;100370.53;;;23.16;44.14
19811;BME280;10065;49.632;8.346;2023-09-19T13:16:16;100366.41;;;23.13;43.77
19811;BME280;10065;49.632;8.346;2023-09-19T13:18:49;100368.75;;;23.10;43.74